Time;durP1;ratioP1;P1;durP2;ratioP2;P2;SDS_P1;SDS_P2;PMS_P1;PMS_P2;Temp;Humidity;BMP_temperature;BMP_pressure;BME280_temperature;BME280_humidity;BME280_pressure;Samples;Min_cycle;Max_cycle;Signal;HPM_P1;HPM_P2
2023/03/16 00:01:10;;;;;;;24.60;7.20;;;;;;;0.24;82.66;101093.43;111119;1210;97699;-61
2023/03/16 00:03:36;;;;;;;24.30;6.70;;;;;;;0.21;82.68;101097.29;111154;1211;97574;-61
2023/03/16 00:06:01;;;;;;;15.80;5.00;;;;;;;0.20;82.69;101102.90;110840;1210;140040;-61
2023/03/16 00:08:26;;;;;;;16.90;6.30;;;;;;;0.17;82.71;101103.59;111064;1213;97615;-61
2023/03/16 00:10:52;;;;;;;15.20;5.50;;;;;;;0.14;82.74;101112.00;110824;1210;138395;-61
2023/03/16 00:13:24;;;;;;;17.20;4.60;;;;;;;0.13;82.80;101115.50;111060;1208;97712;-61
2023/03/16 00:15:54;;;;;;;14.10;5.70;;;;;;;0.11;82.78;101119.54;111058;1210;107250;-61
2023/03/16 00:18:21;;;;;;;15.80;5.40;;;;;;;0.10;82.76;101116.71;110849;1208;139088;-61
2023/03/16 00:20:51;;;;;;;15.50;4.90;;;;;;;0.07;82.71;101124.77;110957;1210;97738;-61
2023/03/16 00:23:25;;;;;;;18.20;4.90;;;;;;;0.05;82.75;101120.90;110879;1210;138370;-61
2023/03/16 00:25:52;;;;;;;13.30;5.00;;;;;;;0.02;82.84;101119.66;110960;1208;99861;-61
2023/03/16 00:28:18;;;;;;;19.60;5.10;;;;;;;-0.02;82.78;101117.73;110750;1210;138925;-61
2023/03/16 00:30:46;;;;;;;14.40;4.20;;;;;;;-0.03;82.83;101119.13;111100;1207;97646;-61
2023/03/16 00:33:11;;;;;;;18.40;5.30;;;;;;;-0.05;82.86;101116.47;110915;1208;97607;-61
2023/03/16 00:35:37;;;;;;;35.40;6.70;;;;;;;-0.06;82.95;101119.27;110973;1208;139025;-61
2023/03/16 00:38:02;;;;;;;17.20;4.90;;;;;;;-0.07;82.90;101119.45;110948;1206;97767;-61
2023/03/16 00:40:29;;;;;;;15.30;5.10;;;;;;;-0.09;82.93;101119.59;110905;1208;139468;-61
2023/03/16 00:42:55;;;;;;;14.20;4.10;;;;;;;-0.12;82.91;101119.58;111082;1210;97681;-61
2023/03/16 00:45:22;;;;;;;11.90;3.30;;;;;;;-0.14;82.94;101119.56;111132;1216;100577;-61
2023/03/16 00:47:48;;;;;;;14.40;4.40;;;;;;;-0.15;83.11;101119.55;110877;1208;139178;-61
2023/03/16 00:50:14;;;;;;;16.80;4.00;;;;;;;-0.16;83.16;101117.61;110967;1208;97624;-60
2023/03/16 00:52:41;;;;;;;12.10;3.50;;;;;;;-0.18;83.09;101116.20;111010;1207;139301;-63
2023/03/16 00:55:07;;;;;;;13.70;5.10;;;;;;;-0.22;83.05;101115.98;111103;1210;99919;-60
2023/03/16 00:57:33;;;;;;;16.60;3.90;;;;;;;-0.25;83.26;101116.48;111031;1212;98216;-61
2023/03/16 00:59:58;;;;;;;13.80;3.50;;;;;;;-0.26;83.22;101117.70;111215;1206;139749;-61
2023/03/16 01:02:24;;;;;;;12.30;4.80;;;;;;;-0.28;83.21;101118.05;111108;1220;110831;-61
2023/03/16 01:04:51;;;;;;;15.50;5.00;;;;;;;-0.28;83.32;101125.23;111004;1211;140121;-63
2023/03/16 01:07:16;;;;;;;17.00;4.00;;;;;;;-0.29;83.44;101133.49;110997;1208;97658;-61
2023/03/16 01:09:42;;;;;;;23.50;6.40;;;;;;;-0.30;83.47;101133.30;110943;1210;97837;-61
2023/03/16 01:12:16;;;;;;;18.50;4.30;;;;;;;-0.31;83.58;101137.67;111161;1210;139486;-61
2023/03/16 01:14:44;;;;;;;14.10;3.00;;;;;;;-0.34;83.64;101138.54;111147;1211;99575;-61
2023/03/16 01:17:12;;;;;;;11.70;4.80;;;;;;;-0.36;83.62;101140.63;110983;1210;138993;-61
2023/03/16 01:19:40;;;;;;;9.60;3.40;;;;;;;-0.37;83.78;101140.61;110948;1212;97598;-61
2023/03/16 01:22:07;;;;;;;9.90;2.80;;;;;;;-0.39;83.86;101144.12;110916;1210;97900;-61
2023/03/16 01:24:36;;;;;;;8.70;3.40;;;;;;;-0.40;83.87;101143.76;110937;1210;139217;-62
2023/03/16 01:27:03;;;;;;;8.50;3.00;;;;;;;-0.42;83.88;101147.06;111060;1210;99666;-61
2023/03/16 01:29:29;;;;;;;10.10;4.30;;;;;;;-0.45;84.08;101150.91;110908;1211;138224;-61
2023/03/16 01:31:54;;;;;;;9.50;3.40;;;;;;;-0.46;83.92;101153.36;110883;1211;98060;-61
2023/03/16 01:34:20;;;;;;;14.40;3.70;;;;;;;-0.48;83.93;101157.38;110924;1208;139711;-62
2023/03/16 01:36:48;;;;;;;9.90;3.60;;;;;;;-0.51;84.12;101162.78;111202;1210;98382;-62
2023/03/16 01:39:13;;;;;;;16.60;3.70;;;;;;;-0.53;84.27;101159.42;111103;1210;97578;-61
2023/03/16 01:41:40;;;;;;;12.60;3.40;;;;;;;-0.53;84.24;101161.89;110930;1211;139636;-61
2023/03/16 01:44:11;;;;;;;12.50;4.40;;;;;;;-0.55;84.46;101160.45;111108;1211;97715;-62
2023/03/16 01:46:36;;;;;;;11.20;2.90;;;;;;;-0.56;84.42;101164.83;111037;1209;139108;-61
2023/03/16 01:49:27;;;;;;;15.00;4.00;;;;;;;-0.59;84.42;101164.10;111088;1221;97720;-61
2023/03/16 01:52:07;;;;;;;12.30;4.10;;;;;;;-0.61;84.73;101164.42;110952;1226;107873;-61
2023/03/16 01:54:38;;;;;;;16.30;4.20;;;;;;;-0.63;84.78;101164.05;110899;1210;139761;-61
2023/03/16 01:57:10;;;;;;;12.90;3.70;;;;;;;-0.65;84.75;101164.91;110920;1214;97995;-61
2023/03/16 01:59:47;;;;;;;16.80;4.20;;;;;;;-0.68;84.81;101162.79;110913;1209;139066;-61
2023/03/16 02:02:17;;;;;;;17.50;4.50;;;;;;;-0.69;84.86;101161.36;111126;1210;98896;-61
2023/03/16 02:05:05;;;;;;;17.20;5.10;;;;;;;-0.69;84.87;101166.10;110972;1211;140080;-61
2023/03/16 02:07:36;;;;;;;12.90;4.00;;;;;;;-0.68;85.19;101172.61;111080;1211;97985;-61
2023/03/16 02:10:03;;;;;;;13.00;3.60;;;;;;;-0.66;85.02;101171.40;111080;1221;100183;-61
2023/03/16 02:12:28;;;;;;;8.10;3.20;;;;;;;-0.62;85.21;101173.02;110898;1208;140031;-61
2023/03/16 02:14:54;;;;;;;16.20;4.30;;;;;;;-0.59;85.12;101170.77;111051;1222;97546;-61
2023/03/16 02:17:23;;;;;;;12.80;3.70;;;;;;;-0.57;85.16;101173.43;110867;1210;140586;-61
2023/03/16 02:20:25;;;;;;;13.00;4.40;;;;;;;-0.55;85.38;101169.76;110797;1207;97281;-62
2023/03/16 02:22:53;;;;;;;10.60;3.90;;;;;;;-0.53;85.55;101178.38;110860;1211;140518;-62
2023/03/16 02:25:22;;;;;;;7.80;3.30;;;;;;;-0.53;85.57;101172.77;111009;1210;98596;-61
2023/03/16 02:28:02;;;;;;;11.30;3.80;;;;;;;-0.51;85.68;101172.61;110979;1221;107482;-61
2023/03/16 02:30:27;;;;;;;16.10;4.40;;;;;;;-0.49;85.66;101178.08;110873;1221;139027;-61
2023/03/16 02:32:53;;;;;;;8.50;3.80;;;;;;;-0.48;85.79;101177.38;110963;1210;97741;-61
2023/03/16 02:35:19;;;;;;;19.90;4.80;;;;;;;-0.46;85.77;101184.60;110935;1209;139035;-61
2023/03/16 02:37:45;;;;;;;22.50;4.80;;;;;;;-0.45;85.95;101189.36;110889;1213;107760;-62
2023/03/16 02:40:22;;;;;;;13.70;4.60;;;;;;;-0.44;86.01;101186.72;111035;1210;97760;-62
2023/03/16 02:43:03;;;;;;;8.40;3.40;;;;;;;-0.44;86.00;101188.66;111058;1212;98578;-63
2023/03/16 02:45:38;;;;;;;;;;;;;;;-0.44;86.00;101189.18;111177;1211;111705;-62
2023/03/16 02:48:08;;;;;;;11.30;3.20;;;;;;;-0.47;85.98;101186.52;110901;1211;126160;-64
2023/03/16 02:50:34;;;;;;;13.90;3.30;;;;;;;-0.48;85.95;101190.02;110960;1206;107778;-61
2023/03/16 02:52:59;;;;;;;15.30;4.00;;;;;;;-0.51;86.09;101194.55;110828;1210;140995;-62
2023/03/16 02:55:24;;;;;;;18.20;4.40;;;;;;;-0.54;86.07;101193.83;111036;1223;97912;-62
2023/03/16 02:57:51;;;;;;;15.50;4.10;;;;;;;-0.56;85.97;101196.27;110909;1210;101143;-61
2023/03/16 03:00:18;;;;;;;10.40;3.50;;;;;;;-0.58;85.98;101194.66;110790;1210;139016;-61
2023/03/16 03:02:44;;;;;;;7.50;3.80;;;;;;;-0.59;86.08;101192.88;111106;1212;97600;-62
2023/03/16 03:05:10;;;;;;;10.60;4.10;;;;;;;-0.61;86.14;101195.85;110936;1210;138933;-61
2023/03/16 03:07:36;;;;;;;9.90;4.10;;;;;;;-0.62;86.09;101194.95;110968;1210;97680;-61
2023/03/16 03:10:04;;;;;;;17.10;4.50;;;;;;;-0.63;86.18;101199.52;110900;1210;97595;-62
2023/03/16 03:12:31;;;;;;;10.00;3.60;;;;;;;-0.64;86.18;101201.95;110954;1210;139954;-61
2023/03/16 03:14:57;;;;;;;12.90;3.50;;;;;;;-0.65;86.22;101199.50;111105;1210;97593;-62
2023/03/16 03:17:28;;;;;;;10.40;4.20;;;;;;;-0.67;86.19;101200.35;111005;1210;139745;-61
2023/03/16 03:19:54;;;;;;;;;;;;;;;-0.69;86.27;101198.92;111032;1210;106804;-61
2023/03/16 03:22:19;;;;;;;11.00;3.40;;;;;;;-0.71;86.14;101200.30;110830;1210;125077;-62
2023/03/16 03:24:45;;;;;;;10.60;3.60;;;;;;;-0.74;86.17;101200.45;111066;1208;97567;-62
2023/03/16 03:27:10;;;;;;;10.40;3.40;;;;;;;-0.77;86.14;101206.03;110891;1220;97562;-62
2023/03/16 03:29:35;;;;;;;10.80;3.40;;;;;;;-0.79;86.27;101210.22;110866;1211;138918;-60
2023/03/16 03:32:03;;;;;;;12.30;4.20;;;;;;;-0.81;86.11;101214.23;110957;1210;97576;-61
2023/03/16 03:34:30;;;;;;;10.10;4.20;;;;;;;-0.83;86.46;101217.70;110819;1220;138812;-61
2023/03/16 03:36:56;;;;;;;15.90;5.70;;;;;;;-0.85;86.47;101215.92;111022;1210;97615;-63
2023/03/16 03:39:23;;;;;;;15.00;4.30;;;;;;;-0.87;86.43;101219.59;111031;1212;97616;-60
2023/03/16 03:41:49;;;;;;;12.90;4.30;;;;;;;-0.88;86.44;101218.87;110877;1206;138961;-60
2023/03/16 03:44:14;;;;;;;13.20;4.40;;;;;;;-0.92;86.36;101216.89;111219;1219;97658;-60
2023/03/16 03:46:40;;;;;;;12.00;4.70;;;;;;;-0.93;86.56;101214.07;111005;1208;140581;-60
2023/03/16 03:49:05;;;;;;;17.00;5.50;;;;;;;-0.94;86.72;101217.56;110876;1212;97751;-61
2023/03/16 03:51:31;;;;;;;11.10;5.00;;;;;;;-0.93;86.63;101214.77;110990;1212;96472;-61
2023/03/16 03:53:58;;;;;;;15.90;4.70;;;;;;;-0.93;86.53;101213.55;110982;1210;140894;-61
2023/03/16 03:56:24;;;;;;;13.90;4.70;;;;;;;-0.93;86.43;101221.79;111166;1216;97619;-61
2023/03/16 03:58:50;;;;;;;12.80;5.50;;;;;;;-0.94;86.47;101219.32;111037;1212;138694;-61
2023/03/16 04:01:15;;;;;;;14.10;4.40;;;;;;;-0.96;86.56;101217.02;110923;1212;97646;-61
2023/03/16 04:03:41;;;;;;;18.30;4.70;;;;;;;-0.96;86.75;101220.87;110974;1210;98110;-61
2023/03/16 04:06:07;;;;;;;13.80;4.30;;;;;;;-0.97;86.58;101218.94;110889;1207;138907;-61
2023/03/16 04:08:33;;;;;;;14.60;4.00;;;;;;;-0.98;86.82;101221.91;111016;1212;98715;-62
2023/03/16 04:10:58;;;;;;;18.00;6.20;;;;;;;-1.00;86.69;101218.02;110962;1212;140766;-63
2023/03/16 04:13:24;;;;;;;14.40;4.70;;;;;;;-1.03;86.74;101221.84;111010;1213;97695;-61
2023/03/16 04:15:56;;;;;;;24.60;5.60;;;;;;;-1.05;86.75;101215.33;110891;1217;99169;-61
2023/03/16 04:18:21;;;;;;;16.80;6.40;;;;;;;-1.07;86.69;101220.39;110977;1210;139211;-62
2023/03/16 04:20:47;;;;;;;13.50;4.00;;;;;;;-1.07;86.84;101219.69;110935;1212;98904;-61
2023/03/16 04:23:12;;;;;;;11.30;3.90;;;;;;;-1.09;86.75;101220.54;110833;1213;140257;-62
2023/03/16 04:25:38;;;;;;;11.90;3.90;;;;;;;-1.11;86.78;101223.85;110937;1212;99292;-62
2023/03/16 04:28:03;;;;;;;29.80;4.40;;;;;;;-1.12;87.04;101227.69;110954;1209;97654;-62
2023/03/16 04:30:29;;;;;;;14.20;4.90;;;;;;;-1.12;86.89;101229.96;111042;1212;139085;-62
2023/03/16 04:32:55;;;;;;;23.90;4.30;;;;;;;-1.14;86.82;101231.17;111060;1210;97764;-62
2023/03/16 04:35:21;;;;;;;11.10;4.40;;;;;;;-1.15;86.86;101233.62;111025;1212;139071;-62
2023/03/16 04:37:46;;;;;;;20.60;4.70;;;;;;;-1.17;87.06;101236.20;111116;1212;97477;-61
2023/03/16 04:40:15;;;;;;;19.40;4.10;;;;;;;-1.18;87.10;101236.02;111091;1206;98106;-61
2023/03/16 04:42:40;;;;;;;11.90;3.60;;;;;;;-1.19;87.12;101236.36;110956;1206;138409;-61
2023/03/16 04:45:07;;;;;;;15.70;4.30;;;;;;;-1.22;87.02;101237.36;111022;1212;98595;-62
2023/03/16 04:47:33;;;;;;;21.80;4.50;;;;;;;-1.25;87.00;101239.77;111039;1210;138841;-62
2023/03/16 04:50:01;;;;;;;12.70;4.20;;;;;;;-1.26;86.96;101241.86;111089;1211;112478;-61
2023/03/16 04:52:27;;;;;;;9.50;3.70;;;;;;;-1.29;87.04;101245.33;111027;1209;138843;-62
2023/03/16 04:54:52;;;;;;;14.60;3.70;;;;;;;-1.31;87.07;101247.77;111045;1212;97917;-61
2023/03/16 04:57:18;;;;;;;16.70;3.80;;;;;;;-1.32;87.10;101245.12;111157;1212;97629;-61
2023/03/16 04:59:44;;;;;;;13.40;4.20;;;;;;;-1.33;87.21;101245.80;110981;1211;139045;-61
2023/03/16 05:02:09;;;;;;;11.70;3.80;;;;;;;-1.35;87.30;101249.29;111086;1212;97666;-61
2023/03/16 05:04:34;;;;;;;16.50;4.20;;;;;;;-1.36;87.10;101245.23;111023;1212;140406;-61
2023/03/16 05:07:00;;;;;;;14.20;4.40;;;;;;;-1.37;87.24;101250.30;111024;1212;96391;-61
2023/03/16 05:09:25;;;;;;;16.30;4.00;;;;;;;-1.37;87.41;101249.08;111077;1212;97619;-61
2023/03/16 05:11:50;;;;;;;18.60;4.60;;;;;;;-1.38;87.22;101253.62;110976;1210;139651;-61
2023/03/16 05:14:16;;;;;;;13.20;4.30;;;;;;;-1.38;87.43;101253.96;111110;1206;97626;-61
2023/03/16 05:16:41;;;;;;;12.10;4.10;;;;;;;-1.39;87.33;101250.10;111014;1212;140588;-62
2023/03/16 05:19:06;;;;;;;15.00;4.80;;;;;;;-1.39;87.31;101251.32;111073;1209;97675;-61
2023/03/16 05:21:33;;;;;;;17.20;4.00;;;;;;;-1.41;87.42;101255.33;111163;1206;97678;-61
2023/03/16 05:23:58;;;;;;;12.20;4.30;;;;;;;-1.41;87.40;101253.21;110981;1206;140327;-62
2023/03/16 05:26:24;;;;;;;15.40;4.80;;;;;;;-1.41;87.47;101260.07;111118;1206;97578;-61
2023/03/16 05:28:50;;;;;;;16.60;5.30;;;;;;;-1.41;87.61;101258.83;111028;1212;138597;-61
2023/03/16 05:31:16;;;;;;;17.00;5.00;;;;;;;-1.41;87.50;101258.13;111160;1209;97651;-61
2023/03/16 05:33:43;;;;;;;15.70;4.40;;;;;;;-1.40;87.77;101262.52;111248;1210;97796;-61
2023/03/16 05:36:10;;;;;;;17.20;4.60;;;;;;;-1.39;87.75;101265.52;110937;1221;138442;-61
2023/03/16 05:38:35;;;;;;;12.60;4.60;;;;;;;-1.38;87.71;101261.33;111217;1212;97572;-62
2023/03/16 05:41:03;;;;;;;19.70;4.50;;;;;;;-1.36;87.81;101262.94;110989;1209;138955;-61
2023/03/16 05:43:29;;;;;;;12.70;4.90;;;;;;;-1.34;87.85;101267.70;110995;1212;97600;-61
2023/03/16 05:45:56;;;;;;;15.90;5.20;;;;;;;-1.33;87.90;101267.38;110978;1212;97573;-62
2023/03/16 05:48:25;;;;;;;9.80;4.00;;;;;;;-1.32;87.83;101269.66;111042;1212;139366;-62
2023/03/16 05:50:51;;;;;;;20.00;4.70;;;;;;;-1.29;87.97;101272.15;111099;1212;98862;-61
2023/03/16 05:53:17;;;;;;;15.10;5.00;;;;;;;-1.27;87.72;101272.54;111045;1212;138779;-63
2023/03/16 05:55:42;;;;;;;18.60;5.20;;;;;;;-1.25;88.14;101276.95;111102;1212;97668;-61
2023/03/16 05:58:08;;;;;;;16.30;6.90;;;;;;;-1.21;88.18;101277.71;110951;1212;98705;-61
2023/03/16 06:00:33;;;;;;;25.80;5.60;;;;;;;-1.18;88.11;101272.67;110757;1212;138233;-61
2023/03/16 06:02:58;;;;;;;26.30;6.70;;;;;;;-1.14;88.26;101278.35;110963;1212;97174;-61
2023/03/16 06:05:24;;;;;;;17.60;5.70;;;;;;;-1.10;88.26;101280.14;110838;1209;138525;-62
2023/03/16 06:07:51;;;;;;;18.80;7.00;;;;;;;-1.06;88.22;101283.55;110820;1210;97963;-61
2023/03/16 06:10:17;;;;;;;22.50;6.00;;;;;;;-1.03;88.16;101280.95;110848;1212;97734;-61
2023/03/16 06:12:42;;;;;;;23.00;5.70;;;;;;;-0.99;88.12;101285.04;110790;1212;139537;-61
2023/03/16 06:15:10;;;;;;;22.40;7.20;;;;;;;-0.96;88.22;101283.84;110803;1212;97711;-61
2023/03/16 06:17:35;;;;;;;32.10;7.40;;;;;;;-0.95;88.26;101288.06;110734;1209;140216;-61
2023/03/16 06:20:04;;;;;;;26.70;8.20;;;;;;;-0.92;88.28;101287.23;110881;1212;97632;-61
2023/03/16 06:22:29;;;;;;;39.40;9.20;;;;;;;-0.90;88.24;101284.81;110789;1210;139615;-61
2023/03/16 06:24:54;;;;;;;30.70;8.40;;;;;;;-0.86;88.56;101286.97;110989;1222;99239;-61
2023/03/16 06:27:20;;;;;;;30.00;8.80;;;;;;;-0.81;88.39;101286.52;111000;1210;107423;-61
2023/03/16 06:29:46;;;;;;;20.90;6.60;;;;;;;-0.77;88.38;101282.52;110859;1207;138459;-62
2023/03/16 06:32:13;;;;;;;24.80;5.40;;;;;;;-0.72;88.40;101285.23;111079;1206;96750;-61
2023/03/16 06:34:40;;;;;;;13.50;4.90;;;;;;;-0.68;88.49;101285.98;110871;1212;140295;-61
2023/03/16 06:37:06;;;;;;;16.20;5.70;;;;;;;-0.62;88.58;101287.27;110994;1213;97647;-61
2023/03/16 06:39:31;;;;;;;11.30;4.90;;;;;;;-0.58;88.66;101288.55;110916;1209;97677;-61
2023/03/16 06:41:57;;;;;;;20.10;4.70;;;;;;;-0.53;88.62;101288.61;110807;1221;138387;-61
2023/03/16 06:44:23;;;;;;;15.50;5.20;;;;;;;-0.48;88.70;101287.97;111026;1209;97650;-63
2023/03/16 06:46:48;;;;;;;19.60;6.30;;;;;;;-0.43;88.71;101293.66;110684;1223;142754;-61
2023/03/16 06:49:14;;;;;;;14.40;6.00;;;;;;;-0.35;88.93;101295.50;110964;1208;97599;-62
2023/03/16 06:51:39;;;;;;;20.80;6.30;;;;;;;-0.27;88.95;101298.39;110787;1212;97610;-62
2023/03/16 06:54:04;;;;;;;19.20;5.10;;;;;;;-0.21;88.93;101292.50;110859;1206;139410;-60
2023/03/16 06:56:30;;;;;;;20.80;5.60;;;;;;;-0.16;88.93;101298.70;110807;1212;97605;-62
2023/03/16 06:58:56;;;;;;;16.40;5.00;;;;;;;-0.09;88.94;101301.77;110561;1212;139032;-62
2023/03/16 07:01:21;;;;;;;10.80;4.30;;;;;;;-0.04;88.95;101298.13;110668;1221;101249;-61
2023/03/16 07:03:47;;;;;;;18.10;4.90;;;;;;;0.03;88.95;101307.65;110861;1212;97594;-61
2023/03/16 07:06:12;;;;;;;14.20;4.70;;;;;;;0.09;89.01;101312.80;110751;1211;139087;-62
2023/03/16 07:08:38;;;;;;;18.30;4.80;;;;;;;0.15;88.99;101313.04;111041;1222;97600;-63
2023/03/16 07:11:03;;;;;;;12.90;4.40;;;;;;;0.20;89.04;101312.20;110670;1212;138354;-62
2023/03/16 07:13:28;;;;;;;21.80;4.80;;;;;;;0.25;88.87;101307.16;110878;1212;97619;-61
2023/03/16 07:15:56;;;;;;;13.70;4.00;;;;;;;0.32;89.01;101315.13;110813;1212;97644;-61
2023/03/16 07:18:23;;;;;;;20.70;4.90;;;;;;;0.38;88.96;101316.06;110840;1212;138301;-62
2023/03/16 07:20:49;;;;;;;14.70;5.10;;;;;;;0.45;89.00;101316.48;110746;1210;101456;-62
2023/03/16 07:23:17;;;;;;;17.30;4.10;;;;;;;0.49;88.82;101319.15;110690;1212;140107;-62
2023/03/16 07:25:43;;;;;;;12.20;3.60;;;;;;;0.55;88.76;101317.96;110676;1209;97626;-63
2023/03/16 07:28:08;;;;;;;21.70;4.80;;;;;;;0.59;88.79;101320.99;110694;1212;99544;-62
2023/03/16 07:30:33;;;;;;;13.20;4.50;;;;;;;0.64;88.79;101320.85;110778;1209;139226;-63
2023/03/16 07:33:00;;;;;;;14.60;4.30;;;;;;;0.73;88.87;101328.66;110822;1212;97951;-62
2023/03/16 07:35:26;;;;;;;16.00;4.40;;;;;;;0.85;88.76;101330.86;110892;1212;138222;-63
2023/03/16 07:37:51;;;;;;;14.10;3.90;;;;;;;0.91;88.60;101330.55;110797;1212;110493;-62
2023/03/16 07:40:19;;;;;;;25.70;5.00;;;;;;;0.99;88.66;101333.78;110850;1209;99228;-63
2023/03/16 07:42:51;;;;;;;15.10;3.70;;;;;;;1.06;88.54;101332.77;110975;1212;97760;-63
2023/03/16 07:45:21;;;;;;;12.50;4.30;;;;;;;1.13;88.38;101333.52;110994;1208;97688;-63
2023/03/16 07:47:46;;;;;;;25.10;3.70;;;;;;;1.21;88.47;101335.14;110862;1212;140202;-62
2023/03/16 07:50:14;;;;;;;15.00;4.10;;;;;;;1.30;88.37;101335.73;111338;1212;97554;-63
2023/03/16 07:52:39;;;;;;;19.30;4.00;;;;;;;1.42;88.33;101336.48;111020;1212;138926;-63
2023/03/16 07:55:07;;;;;;;10.50;3.00;;;;;;;1.53;88.18;101343.59;111000;1224;97330;-63
2023/03/16 07:57:33;;;;;;;16.70;4.10;;;;;;;1.62;88.00;101342.76;111036;1212;99284;-62
2023/03/16 08:00:04;;;;;;;9.40;3.30;;;;;;;1.71;87.58;101347.36;110817;1212;139829;-62
2023/03/16 08:02:30;;;;;;;11.80;3.10;;;;;;;1.78;87.23;101344.05;111015;1221;100018;-64
2023/03/16 08:04:55;;;;;;;14.50;3.70;;;;;;;1.85;87.26;101343.02;110866;1212;138919;-64
2023/03/16 08:07:21;;;;;;;12.60;3.10;;;;;;;1.95;87.05;101347.98;111133;1212;97619;-65
2023/03/16 08:09:46;;;;;;;16.30;2.70;;;;;;;2.05;86.56;101349.07;111055;1209;97589;-64
2023/03/16 08:12:11;;;;;;;16.40;2.90;;;;;;;2.13;86.39;101348.56;110879;1211;138555;-63
2023/03/16 08:14:39;;;;;;;25.20;5.00;;;;;;;2.22;86.43;101358.80;111033;1212;97697;-64
2023/03/16 08:17:08;;;;;;;15.80;3.40;;;;;;;2.30;85.66;101353.88;110798;1212;140561;-63
2023/03/16 08:19:34;;;;;;;7.40;2.90;;;;;;;2.36;85.44;101362.89;110946;1209;110800;-64
2023/03/16 08:22:05;;;;;;;10.40;3.60;;;;;;;2.42;84.87;101364.13;111032;1210;97293;-65
2023/03/16 08:24:31;;;;;;;12.70;2.70;;;;;;;2.43;84.65;101360.77;110687;1209;140132;-65
2023/03/16 08:26:57;;;;;;;17.20;3.40;;;;;;;2.46;84.39;101365.55;110966;1212;99762;-64
2023/03/16 08:29:24;;;;;;;17.30;3.40;;;;;;;2.56;84.32;101365.20;110893;1209;138582;-63
2023/03/16 08:31:53;;;;;;;14.30;2.80;;;;;;;2.72;84.61;101360.59;111323;1210;97578;-64
2023/03/16 08:34:18;;;;;;;17.10;3.00;;;;;;;2.87;83.82;101367.83;110961;1209;140502;-64
2023/03/16 08:36:44;;;;;;;11.60;2.60;;;;;;;2.99;83.81;101364.30;110960;1223;97583;-63
2023/03/16 08:39:09;;;;;;;14.10;3.00;;;;;;;3.08;83.24;101361.63;110813;1212;97638;-64
2023/03/16 08:41:35;;;;;;;22.10;4.00;;;;;;;3.15;83.03;101362.50;110843;1209;138833;-63
2023/03/16 08:44:01;;;;;;;9.60;2.40;;;;;;;3.26;83.09;101360.89;111151;1206;99189;-63
2023/03/16 08:46:27;;;;;;;12.50;2.90;;;;;;;3.34;82.91;101366.88;110929;1209;140083;-64
2023/03/16 08:48:54;;;;;;;17.00;4.30;;;;;;;3.36;82.58;101367.41;110955;1209;97687;-64
2023/03/16 08:51:20;;;;;;;16.30;2.80;;;;;;;3.40;82.26;101373.58;111088;1212;97708;-65
2023/03/16 08:53:46;;;;;;;18.90;3.40;;;;;;;3.42;82.22;101376.94;110977;1212;139316;-64
2023/03/16 08:56:13;;;;;;;14.50;3.60;;;;;;;3.42;81.50;101382.41;110971;1212;98004;-64
2023/03/16 08:58:44;;;;;;;17.80;3.40;;;;;;;3.37;81.17;101382.60;111015;1209;138735;-64
2023/03/16 09:01:11;;;;;;;10.80;2.40;;;;;;;3.40;81.43;101383.83;110921;1212;109624;-63
2023/03/16 09:03:37;;;;;;;10.70;2.60;;;;;;;3.44;81.42;101383.81;111031;1210;97626;-63
2023/03/16 09:06:08;;;;;;;10.30;2.80;;;;;;;3.50;80.76;101379.38;110868;1218;140587;-65
2023/03/16 09:08:35;;;;;;;14.00;2.60;;;;;;;3.56;80.56;101384.84;111084;1212;97628;-64
2023/03/16 09:11:04;;;;;;;13.80;4.20;;;;;;;3.56;79.75;101388.91;111042;1206;138790;-64
2023/03/16 09:13:30;;;;;;;5.10;1.80;;;;;;;3.58;79.98;101390.50;111118;1212;112000;-63
2023/03/16 09:15:56;;;;;;;13.00;3.90;;;;;;;3.62;79.96;101391.73;111060;1210;97690;-63
2023/03/16 09:18:25;;;;;;;12.60;3.90;;;;;;;3.68;79.93;101393.83;110965;1206;139891;-62
2023/03/16 09:20:51;;;;;;;20.90;2.90;;;;;;;3.75;80.00;101397.69;111311;1206;97697;-63
2023/03/16 09:23:18;;;;;;;10.70;2.80;;;;;;;3.81;79.69;101397.85;111115;1211;139814;-62
2023/03/16 09:25:44;;;;;;;11.20;2.90;;;;;;;3.83;79.43;101398.55;110921;1212;99068;-64
2023/03/16 09:28:10;;;;;;;11.90;2.60;;;;;;;3.88;79.45;101394.81;110980;1210;97701;-63
2023/03/16 09:30:36;;;;;;;16.10;3.50;;;;;;;4.03;79.52;101398.63;111216;1209;138075;-64
2023/03/16 09:33:02;;;;;;;11.70;2.30;;;;;;;4.02;78.96;101395.27;110978;1212;111774;-64
2023/03/16 09:35:28;;;;;;;13.30;3.10;;;;;;;3.93;77.99;101402.21;110910;1211;138517;-62
2023/03/16 09:37:56;;;;;;;14.40;2.60;;;;;;;3.81;77.92;101401.02;111229;1209;99474;-63
2023/03/16 09:40:23;;;;;;;11.50;3.90;;;;;;;3.78;77.97;101405.11;110885;1212;139090;-63
2023/03/16 09:43:27;;;;;;;11.30;2.60;;;;;;;3.78;78.00;101408.46;111064;1211;97708;-62
2023/03/16 09:46:14;;;;;;;8.70;2.20;;;;;;;3.81;77.44;101408.98;110932;1210;111659;-63
2023/03/16 09:48:40;;;;;;;12.20;3.00;;;;;;;3.79;77.59;101405.10;111004;1212;139898;-63
2023/03/16 09:51:16;;;;;;;10.70;3.50;;;;;;;3.86;78.04;101406.13;111120;1209;97641;-63
2023/03/16 09:53:41;;;;;;;15.60;3.50;;;;;;;4.03;78.27;101403.05;110967;1209;138296;-63
2023/03/16 09:56:15;;;;;;;11.60;3.70;;;;;;;4.13;78.21;101409.73;111047;1215;97689;-63
2023/03/16 09:58:40;;;;;;;14.30;3.60;;;;;;;4.25;78.29;101411.80;110949;1209;138478;-63
2023/03/16 10:01:12;;;;;;;19.50;3.80;;;;;;;4.20;77.97;101407.23;111027;1208;99781;-63
2023/03/16 10:04:02;;;;;;;10.30;2.40;;;;;;;4.02;77.45;101411.38;111003;1209;107442;-62
2023/03/16 10:06:28;;;;;;;14.90;2.70;;;;;;;3.91;77.21;101414.61;110852;1218;140030;-62
2023/03/16 10:09:21;;;;;;;8.40;2.40;;;;;;;3.91;77.02;101417.44;110992;1209;97701;-63
2023/03/16 10:11:52;;;;;;;11.40;2.60;;;;;;;3.84;76.73;101415.69;111253;1209;138323;-63
2023/03/16 10:14:46;;;;;;;6.70;2.90;;;;;;;3.83;76.73;101419.23;111146;1219;99308;-63
2023/03/16 10:17:24;;;;;;;10.70;2.60;;;;;;;3.95;76.90;101419.01;110936;1206;139821;-63
2023/03/16 10:20:00;;;;;;;14.90;3.10;;;;;;;4.11;77.24;101421.94;111064;1210;98081;-63
2023/03/16 10:22:30;;;;;;;12.00;2.70;;;;;;;4.33;76.61;101424.66;111088;1210;138528;-64
2023/03/16 10:25:15;;;;;;;14.10;2.30;;;;;;;4.50;76.19;101432.00;111120;1210;111595;-63
2023/03/16 10:27:43;;;;;;;14.80;2.40;;;;;;;4.53;76.32;101422.08;111106;1212;102561;-63
2023/03/16 10:30:23;;;;;;;11.30;3.90;;;;;;;4.56;75.67;101418.33;110940;1212;138081;-63
2023/03/16 10:32:49;;;;;;;11.70;2.50;;;;;;;4.51;74.34;101416.07;111202;1212;97620;-62
2023/03/16 10:35:30;;;;;;;10.40;3.10;;;;;;;4.49;74.64;101418.20;111115;1209;138327;-63
2023/03/16 10:37:57;;;;;;;14.00;3.00;;;;;;;4.67;74.93;101415.26;111026;1212;111831;-63
2023/03/16 10:40:23;;;;;;;11.10;2.50;;;;;;;4.75;74.69;101419.09;110991;1206;139087;-63
2023/03/16 10:42:48;;;;;;;6.50;2.20;;;;;;;4.76;74.65;101417.67;111076;1205;99255;-64
2023/03/16 10:45:29;;;;;;;14.00;2.50;;;;;;;4.79;74.54;101416.23;111195;1209;97769;-64
2023/03/16 10:48:12;;;;;;;10.70;2.50;;;;;;;4.77;73.64;101417.14;111017;1209;139015;-64
2023/03/16 10:50:40;;;;;;;9.30;2.00;;;;;;;4.74;73.22;101418.22;111054;1210;100530;-64
2023/03/16 10:53:20;;;;;;;14.50;2.30;;;;;;;4.74;72.96;101428.13;110803;1212;137821;-64
2023/03/16 10:55:46;;;;;;;10.10;2.00;;;;;;;4.75;71.81;101420.68;110971;1212;97571;-64
2023/03/16 10:58:24;;;;;;;12.70;2.30;;;;;;;4.90;72.21;101415.61;111099;1209;97604;-64
2023/03/16 11:00:50;;;;;;;9.40;2.00;;;;;;;5.07;71.66;101413.52;110825;1212;111592;-63
2023/03/16 11:03:31;;;;;;;14.30;2.80;;;;;;;5.15;71.52;101408.85;110961;1212;97701;-64
2023/03/16 11:05:59;;;;;;;12.60;2.20;;;;;;;5.23;70.79;101410.87;110828;1212;137686;-64
2023/03/16 11:08:27;;;;;;;14.80;2.20;;;;;;;5.19;69.70;101416.78;111011;1212;97570;-64
2023/03/16 11:11:10;;;;;;;16.40;2.80;;;;;;;5.18;69.90;101411.13;110820;1211;139046;-64
2023/03/16 11:13:37;;;;;;;8.40;2.40;;;;;;;5.23;69.96;101411.95;111058;1210;111330;-64